Assonet, Massachusetts
Current Conditions -  °F | °C
As of 3:52 PM on Thursday 23 Oct 2014 (Local Time) from KTAN Reporting Station
Light Rain Light Rain  
Wind Chill: 57°   Ceiling: 700
Heat Index: 57°   Visibility: 6mi
Dew Point: 55°   Wind: 9mph
Humidity: 93%   Direction: 360°N
Pressure: 29.54"   Gusts: 21mph
Location:  41.8°N, 71.07°W
Report Text: KTAN 231952Z AUTO 36008G18KT 6SM -RA BR OVC007 14/13 A2954 RMK AO2 CIG 004V011 SLP001 P0007 T01390128
Loading
Personal Weather Stations






























Interactive Weather Map
Tropical Storm Tracking
New forecast layout! Learn more

10-Day Weather Forecast

Advertisements
Track Severe Weather on mobile